Blowing Sand Mountains, Nevada Weather observations

Data are for observation ending at time listed.
 Day   Time    Ave.   Ave.  Ave.  Vector   Max.   Stn.    Total    Solar   Ave.  
  of    of     Air    Rel.  Wind   Wind    Wind   Baro.  Precip.   Rad.    Soil  
Year   Day     Temp.  Hum.  Speed  Dir.    Gust   Pres.                    Temp. 
2015   (PST)    F      %     mph   deg.    mph     mb.     in.     W/m2     F   
------------------------------------------------------------------------------
  58   13:30   44.1    63   15.1   332     21.0    870.3     0.00     172     42.5
  58   13:40   43.9    66   12.6     6     17.7    869.8     0.00     445     42.5
  58   13:50   45.3    65   10.6    34     15.6    869.5     0.00     718     42.5
  58   14:00   46.4    62    9.4    58     14.0    869.2     0.00     665     42.5
  58   14:10   47.3    59   11.1    65     14.3    869.1     0.00     638     42.6
  58   14:20   48.1    56    8.0    66     12.9    869.0     0.00     647     42.6
  58   14:30   48.9    55    7.6    62     11.6    868.8     0.00     580     42.7
  58   14:40   50.0    49    8.3   333     12.9    868.9     0.00     543     42.8
  58   14:50   49.9    45    8.4   339     15.4    868.8     0.00     518     42.8
  58   15:00   49.5    46    7.2     8     11.8    868.7     0.00     489     42.9
  58   15:10   49.0    47    6.5    21     13.7    868.6     0.00     466     43.0
  58   15:20   49.3    48    6.8    12     11.2    868.6     0.00     441     43.0
  58   15:30   49.5    48    9.6    23     17.1    868.6     0.00     325     43.1
  58   15:40   49.4    48   10.6    37     17.2    868.4     0.00     358     43.2
  58   15:50   49.2    48   13.3    24     19.1    868.4     0.00     224     43.2
  58   16:00   49.2    48   11.8    18     19.1    868.4     0.00     321     43.2
  58   16:10   49.7    46   12.3    13     17.0    868.5     0.00     321     43.3
  58   16:20   49.0    46   11.5    33     15.7    868.5     0.00     267     43.4
  58   16:30   48.5    44    8.5    33     12.3    868.4     0.00     199     43.4
  58   16:40   48.7    43    5.4    37      9.0    868.3     0.00     199     43.5
  58   16:50   48.8    43    4.2    16      8.8    868.3     0.00     171     43.6
  58   17:00   48.9    41    4.9   354      9.6    868.3     0.00     111     43.6
  58   17:10   48.1    42    7.3     8     11.9    868.5     0.00      84     43.7
  58   17:20   48.1    41    5.2    20      7.4    868.3     0.00      56     43.7
  58   17:30   47.4    43    6.8    26     11.8    868.3     0.00      37     43.8
  58   17:40   46.9    43    5.7   349     11.2    868.4     0.00      21     43.9
  58   17:50   46.6    42    7.4   338     10.8    868.3     0.00       8     43.9
  58   18:00   46.1    44   10.9   346     17.9    868.6     0.00       1     44.0
  58   18:10   45.0    50   14.1     2     20.2    868.8     0.00       0     44.0
  58   18:20   43.8    56   10.6     2     15.3    868.8     0.00       0     44.0
  58   18:30   43.0    58    9.0   347     16.0    869.2     0.00       0     44.1
  58   18:40   42.9    57    9.9   359     16.4    869.2     0.00       0     44.2
  58   18:50   42.5    59    8.4    18     13.4    869.3     0.00       0     44.2
  58   19:00   42.5    58    3.6    44      7.9    869.3     0.00       0     44.2
  58   19:10   42.2    60    3.8    80      7.5    869.3     0.00       0     44.3
  58   19:20   42.0    61    2.5   111      3.6    869.3     0.00       0     44.3
  58   19:30   41.6    62    2.8   142      3.8    869.3     0.00       0     44.4
  58   19:40   41.4    62    1.9   120      3.0    869.2     0.00       0     44.4
  58   19:50   41.1    62    2.4   168      4.2    869.3     0.00       0     44.4
  58   20:00   40.8    63    1.8   218      3.4    869.4     0.00       0     44.5
  58   20:10   40.5    62    1.4   205      2.1    869.3     0.00       0     44.5
  58   20:20   40.0    62    1.7   260      3.9    869.3     0.00       0     44.6
  58   20:30   39.7    63    0.6   246      1.9    869.4     0.00       0     44.6
  58   20:40   39.2    63    2.3   247      4.7    869.4     0.00       0     44.6
  58   20:50   38.1    63    2.5   265      3.6    869.3     0.00       0     44.6
  58   21:00   38.0    64    1.3   289      3.5    869.4     0.00       0     44.7
  58   21:10   37.9    64    1.3   245      4.5    869.6     0.00       0     44.7
  58   21:20   38.2    64    2.2   274      3.9    869.6     0.00       0     44.7
  58   21:30   38.8    65    3.7   284      5.8    869.6     0.00       0     44.7
  58   21:40   39.0    65    6.3   277     11.1    869.6     0.00       0     44.7
  58   21:50   39.4    67    7.2   284     10.7    869.8     0.01       1     44.7
  58   22:00   39.1    68    3.5   297      6.1    869.8     0.00       1     44.7
  58   22:10   39.3    69    3.8   343      5.8    869.8     0.00       1     44.7
  58   22:20   38.8    71    2.8     2      4.0    869.8     0.01       1     44.7
  58   22:30   38.9    72    2.5   348      3.9    869.8     0.00       1     44.7
  58   22:40   38.9    74    3.1   340      5.9    869.8     0.00       1     44.8
  58   22:50   38.7    75    5.0   337      7.8    869.8     0.00       1     44.8
  58   23:00   38.4    75    4.8   340      7.4    869.7     0.00       1     44.8
  58   23:10   38.0    75    1.9    11      3.3    869.7     0.00       1     44.8
  58   23:20   37.6    75    0.5     4      2.6    869.6     0.00       1     44.8
  58   23:30   37.5    75    1.2   327      2.4    869.6     0.00       1     44.8
  58   23:40   37.2    75    1.5   356      3.1    869.5     0.00       1     44.8
  58   23:50   36.6    75    1.7    62      3.0    869.5     0.00       1     44.8
  59    0:00   36.2    76    4.5    45      6.9    869.4     0.00       1     44.8
  59    0:10   35.8    76    3.3    22      4.7    869.3     0.00       1     44.8
  59    0:20   35.1    76    1.5   355      3.2    869.3     0.00       1     44.8
  59    0:30   34.4    77    1.4   136      2.3    869.2     0.00       1     44.8
  59    0:40   34.7    78    0.3    77      1.2    869.2     0.00       1     44.8
  59    0:50   33.7    78    1.3   134      2.6    869.2     0.00       1     44.7
  59    1:00   33.0    80    1.4   145      2.4    869.2     0.00       1     44.7
  59    1:10   32.4    81    1.9   102      4.2    869.2     0.00       1     44.7
  59    1:20   32.5    82    2.0    68      2.9    869.2     0.00       1     44.7
  59    1:30   32.2    82    2.6   132      3.1    869.2     0.00       1     44.7
  59    1:40   31.5    83    2.0   154      2.7    869.2     0.00       1     44.7
  59    1:50   31.2    84    1.8   130      2.4    869.3     0.00       1     44.7
  59    2:00   30.8    84    2.4   125      3.1    869.3     0.00       1     44.7
  59    2:10   30.2    85    3.0    58      3.8    869.3     0.00       1     44.6
  59    2:20   30.4    86    2.9    66      3.8    869.2     0.00       1     44.6
  59    2:30   30.9    86    3.7    69      4.7    869.2     0.00       1     44.6
  59    2:40   31.3    86    3.5    78      4.8    869.2     0.00       1     44.6
  59    2:50   31.1    86    2.0    57      3.3    869.1     0.00       1     44.6
  59    3:00   31.1    87    1.5    26      2.7    869.1     0.00       1     44.5
  59    3:10   31.3    87    3.0    71      3.9    868.9     0.00       1     44.5
  59    3:20   31.2    87    0.7    76      1.7    868.8     0.00       1     44.5
  59    3:30   31.2    87    0.6   102      2.2    868.8     0.00       1     44.5
  59    3:40   30.1    87    2.1   220      5.2    868.8     0.00       1     44.5
  59    3:50   28.8    87    3.4   234      4.7    868.8     0.00       1     44.5
  59    4:00   27.4    87    2.9   235      4.3    868.9     0.00       1     44.5
  59    4:10   27.6    87    1.6   193      2.6    869.0     0.00       1     44.4
  59    4:20   27.6    88    1.1   152      3.3    869.1     0.00       0     44.4
  59    4:30   27.6    88    2.5    54      3.4    869.1     0.00       0     44.4
  59    4:40   26.8    88    1.0    72      2.7    869.2     0.00       0     44.4
  59    4:50   27.2    88    0.0    93      1.0    869.2     0.00       0     44.4
  59    5:00   26.8    89    0.0     0      0.0    869.2     0.00       0     44.3
  59    5:10   25.9    89    0.5     2      1.7    869.3     0.00       0     44.3
  59    5:20   25.9    89    1.1   123      2.4    869.3     0.00       0     44.2
  59    5:30   24.9    89    1.3   164      3.4    869.4     0.00       0     44.2
  59    5:40   24.2    90    1.2   212      3.4    869.4     0.00       0     44.2
  59    5:50   23.4    89    2.4   234      4.5    869.5     0.00       0     44.2
  59    6:00   23.2    90    1.1   268      3.1    869.6     0.00       0     44.1
  59    6:10   22.9    90    0.9    16      2.6    869.7     0.00       0     44.1
  59    6:20   23.2    91    2.8   108      4.0    869.7     0.00       1     44.1
  59    6:30   23.7    91    2.8   127      3.9    869.8     0.00       1     44.1
  59    6:40   23.9    92    2.5   116      3.2    869.8     0.00       3     44.0
  59    6:50   23.9    92    2.1   113      3.2    869.9     0.00       7     44.0
  59    7:00   23.6    93    2.1   143      2.8    869.9     0.00      14     44.0
  59    7:10   22.5    94    2.3   154      3.3    870.1     0.00      22     44.0
  59    7:20   20.7    95    1.9   135      3.0    870.1     0.00      33     43.9
  59    7:30   18.8    97    3.4   139      5.2    870.3     0.00      44     43.9
  59    7:40   16.7   100    3.9   142      5.6    870.4     0.00      55     43.9
  59    7:50   14.7   100    4.3   147      5.8    870.6     0.00      72     43.8
  59    8:00   13.0   100    4.4   162      5.3    870.7     0.00      86     43.8
  59    8:10   11.9   100    3.8   170      5.6    870.8     0.00      97     43.8
  59    8:20   11.1   106    4.8   163      6.8    870.9     0.00     118     43.8
  59    8:30   10.8   105    6.0   152      8.9    871.0     0.00     139     43.7
  59    8:40   11.2   100    5.9   148      7.5    871.2     0.00     159     43.7
  59    8:50   11.9   100    5.3   149      6.9    871.3     0.00     173     43.7
  59    9:00   12.6   100    5.1   149      7.0    871.3     0.00     173     43.6
  59    9:10   13.4   100    3.9   153      6.1    871.4     0.00     175     43.6
  59    9:20   14.2   100    2.3   150      4.4    871.5     0.00     155     43.6
  59    9:30   14.8    98    4.3   178     11.6    871.6     0.00     101     43.6
  59    9:40   15.2    97    3.2   218      8.8    871.7     0.00     164     43.6
  59    9:50   16.0    94    7.2   242     11.0    871.7     0.00     223     43.5
  59   10:00   17.2    91    7.1   243     11.0    871.8     0.00     297     43.5
  59   10:10   18.5    88    6.6   251      9.3    871.9     0.00     339     43.4
  59   10:20   20.1    84    8.3   259     11.7    872.0     0.00     298     43.4
  59   10:30   21.9    80    9.1   269     13.3    872.1     0.00     355     43.4
  59   10:40   23.9    77    7.2   258     10.7    872.1     0.00     401     43.4
  59   10:50   25.9    74    4.7   260      8.1    872.1     0.00     393     43.3
  59   11:00   28.0    71    2.8   276      6.2    872.2     0.00     359     43.3
  59   11:10   30.3    68    7.2   305     12.5    872.2     0.00     374     43.3
  59   11:20   32.0    67    9.6   320     13.5    872.2     0.00     398     43.3
  59   11:30   33.4    66    8.5   324     13.4    872.2     0.00     475     43.4
  59   11:40   35.0    64   11.4   313     16.9    872.2     0.00     471     43.3
  59   11:50   35.7    63   12.3   310     16.8    872.2     0.00     488     43.3
  59   12:00   36.4    61   11.4   316     15.1    872.2     0.00     421     43.3
  59   12:10   37.1    60   11.3   320     16.6    872.2     0.00     391     43.3
  59   12:20   37.7    58    9.8   335     15.1    872.1     0.00     415     43.3
  59   12:30   38.9    56    7.7   343     10.5    872.0     0.00     466     43.3
  59   12:40   39.8    58    8.5   352     12.1    872.0     0.00     497     43.3
  59   12:50   40.1    58    8.2   357     12.7    872.0     0.00     425     43.3
  59   13:00   41.2    58    7.0   312     11.7    872.0     0.00     651     43.3
  59   13:10   42.4    54    7.8   307     12.6    871.9     0.00     545     43.3
  59   13:20   43.1    54    9.7   332     14.0    871.9     0.00     482     43.3

Return to Blowing Sand Mountains graphs page.


Western Regional Climate Center,wrcc@dri.edu